sensor_id;sensor_type;location;lat;lon;timestamp;P1;durP1;ratioP1;P2;durP2;ratioP2
60919;SDS011;59039;52.108;19.942;2023-06-14T00:00:35;10.30;;;6.70;;
60919;SDS011;59039;52.108;19.942;2023-06-14T00:03:01;8.90;;;6.30;;
60919;SDS011;59039;52.108;19.942;2023-06-14T00:05:41;8.30;;;6.30;;
60919;SDS011;59039;52.108;19.942;2023-06-14T00:08:12;12.40;;;7.30;;
60919;SDS011;59039;52.108;19.942;2023-06-14T00:11:07;11.60;;;6.60;;
60919;SDS011;59039;52.108;19.942;2023-06-14T00:13:46;9.40;;;6.50;;
60919;SDS011;59039;52.108;19.942;2023-06-14T00:16:14;11.30;;;7.30;;
60919;SDS011;59039;52.108;19.942;2023-06-14T00:18:39;11.10;;;7.00;;
60919;SDS011;59039;52.108;19.942;2023-06-14T00:24:42;9.80;;;7.20;;
60919;SDS011;59039;52.108;19.942;2023-06-14T00:27:15;10.60;;;7.20;;
60919;SDS011;59039;52.108;19.942;2023-06-14T00:29:56;12.40;;;8.10;;
60919;SDS011;59039;52.108;19.942;2023-06-14T00:35:30;9.60;;;7.20;;
60919;SDS011;59039;52.108;19.942;2023-06-14T00:38:06;11.40;;;7.90;;
60919;SDS011;59039;52.108;19.942;2023-06-14T00:41:02;10.80;;;7.50;;
60919;SDS011;59039;52.108;19.942;2023-06-14T00:43:27;11.80;;;8.30;;
60919;SDS011;59039;52.108;19.942;2023-06-14T00:51:29;19.30;;;8.20;;
60919;SDS011;59039;52.108;19.942;2023-06-14T00:54:03;13.00;;;8.00;;
60919;SDS011;59039;52.108;19.942;2023-06-14T00:56:31;14.10;;;7.80;;
60919;SDS011;59039;52.108;19.942;2023-06-14T00:58:57;12.30;;;7.90;;
60919;SDS011;59039;52.108;19.942;2023-06-14T01:01:25;10.20;;;7.50;;
60919;SDS011;59039;52.108;19.942;2023-06-14T01:13:15;13.60;;;8.20;;
60919;SDS011;59039;52.108;19.942;2023-06-14T01:16:03;14.00;;;7.80;;
60919;SDS011;59039;52.108;19.942;2023-06-14T01:18:33;12.10;;;8.10;;
60919;SDS011;59039;52.108;19.942;2023-06-14T01:21:28;9.80;;;7.30;;
60919;SDS011;59039;52.108;19.942;2023-06-14T01:24:12;10.00;;;7.00;;
60919;SDS011;59039;52.108;19.942;2023-06-14T01:26:57;11.80;;;7.30;;
60919;SDS011;59039;52.108;19.942;2023-06-14T01:29:34;12.40;;;8.10;;
60919;SDS011;59039;52.108;19.942;2023-06-14T01:32:10;10.20;;;8.00;;
60919;SDS011;59039;52.108;19.942;2023-06-14T01:37:50;12.00;;;7.70;;
60919;SDS011;59039;52.108;19.942;2023-06-14T01:46:20;14.80;;;8.80;;
60919;SDS011;59039;52.108;19.942;2023-06-14T01:51:52;12.80;;;8.60;;
60919;SDS011;59039;52.108;19.942;2023-06-14T01:54:33;14.10;;;9.00;;
60919;SDS011;59039;52.108;19.942;2023-06-14T01:57:39;14.00;;;9.00;;
60919;SDS011;59039;52.108;19.942;2023-06-14T02:00:05;11.80;;;8.60;;
60919;SDS011;59039;52.108;19.942;2023-06-14T02:02:40;9.90;;;8.30;;
60919;SDS011;59039;52.108;19.942;2023-06-14T02:05:15;12.60;;;8.80;;
60919;SDS011;59039;52.108;19.942;2023-06-14T02:13:35;14.10;;;10.10;;
60919;SDS011;59039;52.108;19.942;2023-06-14T02:16:00;13.10;;;9.50;;
60919;SDS011;59039;52.108;19.942;2023-06-14T02:18:54;16.10;;;11.00;;
60919;SDS011;59039;52.108;19.942;2023-06-14T02:24:27;13.40;;;9.20;;
60919;SDS011;59039;52.108;19.942;2023-06-14T02:29:35;12.40;;;8.70;;
60919;SDS011;59039;52.108;19.942;2023-06-14T02:32:29;15.60;;;8.90;;
60919;SDS011;59039;52.108;19.942;2023-06-14T02:37:42;12.70;;;9.40;;
60919;SDS011;59039;52.108;19.942;2023-06-14T02:40:28;16.60;;;9.60;;
60919;SDS011;59039;52.108;19.942;2023-06-14T02:43:14;12.70;;;9.30;;
60919;SDS011;59039;52.108;19.942;2023-06-14T02:48:41;16.20;;;9.70;;
60919;SDS011;59039;52.108;19.942;2023-06-14T02:51:09;16.00;;;10.00;;
60919;SDS011;59039;52.108;19.942;2023-06-14T02:53:37;12.60;;;9.40;;
60919;SDS011;59039;52.108;19.942;2023-06-14T02:56:06;13.40;;;9.40;;
60919;SDS011;59039;52.108;19.942;2023-06-14T02:58:31;12.70;;;9.60;;
60919;SDS011;59039;52.108;19.942;2023-06-14T03:01:06;16.70;;;10.90;;
60919;SDS011;59039;52.108;19.942;2023-06-14T03:04:13;12.20;;;9.50;;
60919;SDS011;59039;52.108;19.942;2023-06-14T03:06:41;12.10;;;9.00;;
60919;SDS011;59039;52.108;19.942;2023-06-14T03:09:09;12.20;;;9.20;;
60919;SDS011;59039;52.108;19.942;2023-06-14T03:14:34;12.30;;;9.00;;
60919;SDS011;59039;52.108;19.942;2023-06-14T03:17:19;15.50;;;9.80;;
60919;SDS011;59039;52.108;19.942;2023-06-14T03:22:53;16.00;;;10.30;;
60919;SDS011;59039;52.108;19.942;2023-06-14T03:25:40;17.10;;;10.40;;
60919;SDS011;59039;52.108;19.942;2023-06-14T03:31:13;17.00;;;9.90;;
60919;SDS011;59039;52.108;19.942;2023-06-14T03:36:14;13.60;;;10.00;;
60919;SDS011;59039;52.108;19.942;2023-06-14T03:38:51;15.80;;;10.80;;
60919;SDS011;59039;52.108;19.942;2023-06-14T03:41:37;12.80;;;10.30;;
60919;SDS011;59039;52.108;19.942;2023-06-14T03:44:02;12.90;;;10.20;;
60919;SDS011;59039;52.108;19.942;2023-06-14T03:46:48;15.10;;;9.90;;
60919;SDS011;59039;52.108;19.942;2023-06-14T03:49:16;15.50;;;10.90;;
60919;SDS011;59039;52.108;19.942;2023-06-14T03:51:41;16.00;;;10.60;;
60919;SDS011;59039;52.108;19.942;2023-06-14T03:54:26;20.30;;;12.50;;
60919;SDS011;59039;52.108;19.942;2023-06-14T03:56:57;15.20;;;11.60;;
60919;SDS011;59039;52.108;19.942;2023-06-14T03:59:23;19.50;;;11.60;;
60919;SDS011;59039;52.108;19.942;2023-06-14T04:02:09;17.80;;;11.90;;
60919;SDS011;59039;52.108;19.942;2023-06-14T04:04:46;16.50;;;11.90;;
60919;SDS011;59039;52.108;19.942;2023-06-14T04:07:22;21.50;;;12.60;;
60919;SDS011;59039;52.108;19.942;2023-06-14T04:12:54;16.40;;;12.10;;
60919;SDS011;59039;52.108;19.942;2023-06-14T04:18:33;18.10;;;12.60;;
60919;SDS011;59039;52.108;19.942;2023-06-14T04:21:13;17.50;;;12.70;;
60919;SDS011;59039;52.108;19.942;2023-06-14T04:29:33;16.60;;;12.10;;
60919;SDS011;59039;52.108;19.942;2023-06-14T04:35:01;19.10;;;13.20;;
60919;SDS011;59039;52.108;19.942;2023-06-14T04:37:50;19.70;;;13.80;;
60919;SDS011;59039;52.108;19.942;2023-06-14T04:40:18;19.40;;;12.70;;
60919;SDS011;59039;52.108;19.942;2023-06-14T04:42:49;19.10;;;14.20;;
60919;SDS011;59039;52.108;19.942;2023-06-14T04:53:56;17.60;;;13.10;;
60919;SDS011;59039;52.108;19.942;2023-06-14T04:56:36;19.40;;;13.40;;
60919;SDS011;59039;52.108;19.942;2023-06-14T04:59:01;20.00;;;13.80;;
60919;SDS011;59039;52.108;19.942;2023-06-14T05:01:27;18.20;;;13.30;;
60919;SDS011;59039;52.108;19.942;2023-06-14T05:03:57;20.70;;;13.40;;
60919;SDS011;59039;52.108;19.942;2023-06-14T05:06:23;16.80;;;13.50;;
60919;SDS011;59039;52.108;19.942;2023-06-14T05:09:08;19.70;;;13.10;;
60919;SDS011;59039;52.108;19.942;2023-06-14T05:11:52;19.10;;;13.10;;
60919;SDS011;59039;52.108;19.942;2023-06-14T05:14:17;25.50;;;12.70;;
60919;SDS011;59039;52.108;19.942;2023-06-14T05:16:45;22.70;;;13.60;;
60919;SDS011;59039;52.108;19.942;2023-06-14T05:19:13;16.20;;;12.10;;
60919;SDS011;59039;52.108;19.942;2023-06-14T05:21:39;25.80;;;13.90;;
60919;SDS011;59039;52.108;19.942;2023-06-14T05:24:04;17.30;;;12.70;;
60919;SDS011;59039;52.108;19.942;2023-06-14T05:29:25;16.90;;;13.20;;
60919;SDS011;59039;52.108;19.942;2023-06-14T05:31:50;19.30;;;12.30;;
60919;SDS011;59039;52.108;19.942;2023-06-14T05:34:16;18.80;;;12.60;;
60919;SDS011;59039;52.108;19.942;2023-06-14T05:36:50;17.30;;;13.80;;
60919;SDS011;59039;52.108;19.942;2023-06-14T05:39:16;17.10;;;10.60;;
60919;SDS011;59039;52.108;19.942;2023-06-14T05:41:41;12.90;;;10.10;;
60919;SDS011;59039;52.108;19.942;2023-06-14T05:44:10;14.60;;;11.00;;
60919;SDS011;59039;52.108;19.942;2023-06-14T05:46:43;17.70;;;11.40;;
60919;SDS011;59039;52.108;19.942;2023-06-14T05:49:20;18.60;;;11.00;;
60919;SDS011;59039;52.108;19.942;2023-06-14T05:52:06;14.30;;;10.70;;
60919;SDS011;59039;52.108;19.942;2023-06-14T05:55:12;15.50;;;11.40;;
60919;SDS011;59039;52.108;19.942;2023-06-14T05:57:40;12.20;;;9.10;;
60919;SDS011;59039;52.108;19.942;2023-06-14T06:00:06;14.40;;;9.90;;
60919;SDS011;59039;52.108;19.942;2023-06-14T06:02:32;19.10;;;10.30;;
60919;SDS011;59039;52.108;19.942;2023-06-14T06:04:58;12.10;;;10.10;;
60919;SDS011;59039;52.108;19.942;2023-06-14T06:07:23;15.50;;;10.60;;
60919;SDS011;59039;52.108;19.942;2023-06-14T06:09:49;15.40;;;10.50;;
60919;SDS011;59039;52.108;19.942;2023-06-14T06:12:14;17.70;;;11.40;;
60919;SDS011;59039;52.108;19.942;2023-06-14T06:15:00;16.50;;;10.50;;
60919;SDS011;59039;52.108;19.942;2023-06-14T06:17:25;15.00;;;9.90;;
60919;SDS011;59039;52.108;19.942;2023-06-14T06:20:03;18.70;;;10.50;;
60919;SDS011;59039;52.108;19.942;2023-06-14T06:22:41;14.50;;;10.70;;
60919;SDS011;59039;52.108;19.942;2023-06-14T06:25:16;13.30;;;9.90;;
60919;SDS011;59039;52.108;19.942;2023-06-14T06:27:41;13.60;;;9.60;;
60919;SDS011;59039;52.108;19.942;2023-06-14T06:32:45;12.50;;;9.20;;
60919;SDS011;59039;52.108;19.942;2023-06-14T06:35:12;15.50;;;9.80;;
60919;SDS011;59039;52.108;19.942;2023-06-14T06:37:41;13.70;;;9.40;;
60919;SDS011;59039;52.108;19.942;2023-06-14T06:40:07;14.80;;;9.40;;
60919;SDS011;59039;52.108;19.942;2023-06-14T06:42:34;13.80;;;9.80;;
60919;SDS011;59039;52.108;19.942;2023-06-14T06:45:12;13.30;;;8.60;;
60919;SDS011;59039;52.108;19.942;2023-06-14T06:47:40;14.70;;;9.60;;
60919;SDS011;59039;52.108;19.942;2023-06-14T06:50:06;14.70;;;8.50;;
60919;SDS011;59039;52.108;19.942;2023-06-14T06:52:42;11.80;;;9.10;;
60919;SDS011;59039;52.108;19.942;2023-06-14T06:55:13;14.70;;;8.70;;
60919;SDS011;59039;52.108;19.942;2023-06-14T07:00:25;11.00;;;8.20;;
60919;SDS011;59039;52.108;19.942;2023-06-14T07:03:12;15.00;;;8.90;;
60919;SDS011;59039;52.108;19.942;2023-06-14T07:05:40;11.60;;;8.30;;
60919;SDS011;59039;52.108;19.942;2023-06-14T07:08:08;14.70;;;8.20;;
60919;SDS011;59039;52.108;19.942;2023-06-14T07:10:33;12.80;;;8.10;;
60919;SDS011;59039;52.108;19.942;2023-06-14T07:13:01;9.20;;;8.00;;
60919;SDS011;59039;52.108;19.942;2023-06-14T07:15:26;12.90;;;9.60;;
60919;SDS011;59039;52.108;19.942;2023-06-14T07:17:52;13.00;;;8.30;;
60919;SDS011;59039;52.108;19.942;2023-06-14T07:20:20;16.90;;;8.80;;
60919;SDS011;59039;52.108;19.942;2023-06-14T07:25:31;11.80;;;8.70;;
60919;SDS011;59039;52.108;19.942;2023-06-14T07:27:57;11.60;;;7.60;;
60919;SDS011;59039;52.108;19.942;2023-06-14T07:30:22;11.50;;;6.80;;
60919;SDS011;59039;52.108;19.942;2023-06-14T07:32:53;10.80;;;6.60;;
60919;SDS011;59039;52.108;19.942;2023-06-14T07:35:19;10.10;;;6.80;;
60919;SDS011;59039;52.108;19.942;2023-06-14T07:38:08;8.50;;;6.20;;
60919;SDS011;59039;52.108;19.942;2023-06-14T07:40:33;9.40;;;6.10;;
60919;SDS011;59039;52.108;19.942;2023-06-14T07:42:58;10.00;;;6.40;;
60919;SDS011;59039;52.108;19.942;2023-06-14T07:45:24;8.30;;;6.00;;
60919;SDS011;59039;52.108;19.942;2023-06-14T07:47:49;8.30;;;6.10;;
60919;SDS011;59039;52.108;19.942;2023-06-14T07:50:17;11.40;;;5.90;;
60919;SDS011;59039;52.108;19.942;2023-06-14T07:52:43;9.30;;;5.80;;
60919;SDS011;59039;52.108;19.942;2023-06-14T07:55:14;10.50;;;6.10;;
60919;SDS011;59039;52.108;19.942;2023-06-14T07:57:39;13.80;;;6.00;;
60919;SDS011;59039;52.108;19.942;2023-06-14T08:00:08;9.90;;;6.30;;
60919;SDS011;59039;52.108;19.942;2023-06-14T08:02:41;8.40;;;5.70;;
60919;SDS011;59039;52.108;19.942;2023-06-14T08:05:10;11.20;;;6.80;;
60919;SDS011;59039;52.108;19.942;2023-06-14T08:07:36;7.40;;;6.20;;
60919;SDS011;59039;52.108;19.942;2023-06-14T08:10:10;11.30;;;5.90;;
60919;SDS011;59039;52.108;19.942;2023-06-14T08:12:41;11.20;;;5.90;;
60919;SDS011;59039;52.108;19.942;2023-06-14T08:17:52;12.60;;;6.00;;
60919;SDS011;59039;52.108;19.942;2023-06-14T08:20:18;7.90;;;6.10;;
60919;SDS011;59039;52.108;19.942;2023-06-14T08:22:45;7.90;;;5.90;;
60919;SDS011;59039;52.108;19.942;2023-06-14T08:28:07;8.70;;;6.10;;
60919;SDS011;59039;52.108;19.942;2023-06-14T08:30:54;10.90;;;6.80;;
60919;SDS011;59039;52.108;19.942;2023-06-14T08:33:27;9.50;;;6.80;;
60919;SDS011;59039;52.108;19.942;2023-06-14T08:35:55;13.70;;;6.10;;
60919;SDS011;59039;52.108;19.942;2023-06-14T08:38:26;7.90;;;5.60;;
60919;SDS011;59039;52.108;19.942;2023-06-14T08:40:52;9.30;;;5.80;;
60919;SDS011;59039;52.108;19.942;2023-06-14T08:43:21;10.60;;;5.30;;
60919;SDS011;59039;52.108;19.942;2023-06-14T08:45:58;7.60;;;5.50;;
60919;SDS011;59039;52.108;19.942;2023-06-14T08:48:30;7.80;;;5.90;;
60919;SDS011;59039;52.108;19.942;2023-06-14T08:51:25;10.60;;;5.50;;
60919;SDS011;59039;52.108;19.942;2023-06-14T08:54:33;6.50;;;5.30;;
60919;SDS011;59039;52.108;19.942;2023-06-14T08:56:40;12.40;;;5.60;;
60919;SDS011;59039;52.108;19.942;2023-06-14T08:59:06;9.40;;;5.90;;
60919;SDS011;59039;52.108;19.942;2023-06-14T09:01:43;11.10;;;6.20;;
60919;SDS011;59039;52.108;19.942;2023-06-14T09:04:30;8.60;;;5.70;;
60919;SDS011;59039;52.108;19.942;2023-06-14T09:07:01;9.60;;;5.80;;
60919;SDS011;59039;52.108;19.942;2023-06-14T09:09:29;6.70;;;5.40;;
60919;SDS011;59039;52.108;19.942;2023-06-14T09:11:55;8.10;;;6.00;;
60919;SDS011;59039;52.108;19.942;2023-06-14T09:14:21;10.60;;;6.40;;
60919;SDS011;59039;52.108;19.942;2023-06-14T09:16:52;12.60;;;7.00;;
60919;SDS011;59039;52.108;19.942;2023-06-14T09:19:23;9.40;;;7.10;;
60919;SDS011;59039;52.108;19.942;2023-06-14T09:21:53;11.90;;;7.30;;
60919;SDS011;59039;52.108;19.942;2023-06-14T09:24:19;10.60;;;7.20;;
60919;SDS011;59039;52.108;19.942;2023-06-14T09:26:46;12.00;;;6.50;;
60919;SDS011;59039;52.108;19.942;2023-06-14T09:29:21;7.40;;;5.40;;
60919;SDS011;59039;52.108;19.942;2023-06-14T09:31:47;12.90;;;5.80;;
60919;SDS011;59039;52.108;19.942;2023-06-14T09:34:15;8.50;;;5.90;;
60919;SDS011;59039;52.108;19.942;2023-06-14T09:36:45;8.70;;;5.80;;
60919;SDS011;59039;52.108;19.942;2023-06-14T09:39:20;8.50;;;5.80;;
60919;SDS011;59039;52.108;19.942;2023-06-14T09:41:46;9.00;;;6.50;;
60919;SDS011;59039;52.108;19.942;2023-06-14T09:44:11;7.90;;;5.80;;
60919;SDS011;59039;52.108;19.942;2023-06-14T09:46:37;7.40;;;5.50;;
60919;SDS011;59039;52.108;19.942;2023-06-14T09:49:05;8.90;;;5.80;;
60919;SDS011;59039;52.108;19.942;2023-06-14T09:51:33;7.60;;;6.00;;
60919;SDS011;59039;52.108;19.942;2023-06-14T09:54:20;9.40;;;6.20;;
60919;SDS011;59039;52.108;19.942;2023-06-14T09:56:48;8.30;;;5.90;;
60919;SDS011;59039;52.108;19.942;2023-06-14T09:59:18;10.00;;;5.80;;
60919;SDS011;59039;52.108;19.942;2023-06-14T10:01:48;9.40;;;6.70;;
60919;SDS011;59039;52.108;19.942;2023-06-14T10:04:35;9.00;;;6.10;;
60919;SDS011;59039;52.108;19.942;2023-06-14T10:07:04;11.40;;;7.10;;
60919;SDS011;59039;52.108;19.942;2023-06-14T10:09:33;10.50;;;6.40;;
60919;SDS011;59039;52.108;19.942;2023-06-14T10:12:08;11.60;;;7.00;;
60919;SDS011;59039;52.108;19.942;2023-06-14T10:14:35;8.60;;;6.60;;
60919;SDS011;59039;52.108;19.942;2023-06-14T10:17:03;12.30;;;7.60;;
60919;SDS011;59039;52.108;19.942;2023-06-14T10:19:54;9.30;;;6.80;;
60919;SDS011;59039;52.108;19.942;2023-06-14T10:22:26;11.30;;;7.60;;
60919;SDS011;59039;52.108;19.942;2023-06-14T10:24:57;12.00;;;8.00;;
60919;SDS011;59039;52.108;19.942;2023-06-14T10:27:23;11.20;;;7.90;;
60919;SDS011;59039;52.108;19.942;2023-06-14T10:32:20;11.60;;;8.60;;
60919;SDS011;59039;52.108;19.942;2023-06-14T10:34:49;11.50;;;7.70;;
60919;SDS011;59039;52.108;19.942;2023-06-14T10:37:19;12.10;;;7.20;;
60919;SDS011;59039;52.108;19.942;2023-06-14T10:39:44;14.30;;;8.20;;
60919;SDS011;59039;52.108;19.942;2023-06-14T10:42:13;8.80;;;7.30;;
60919;SDS011;59039;52.108;19.942;2023-06-14T10:49:47;9.50;;;7.30;;
60919;SDS011;59039;52.108;19.942;2023-06-14T10:52:35;15.00;;;7.60;;
60919;SDS011;59039;52.108;19.942;2023-06-14T10:55:13;9.00;;;6.80;;
60919;SDS011;59039;52.108;19.942;2023-06-14T10:57:42;9.40;;;7.30;;
60919;SDS011;59039;52.108;19.942;2023-06-14T11:00:21;13.80;;;7.20;;
60919;SDS011;59039;52.108;19.942;2023-06-14T11:05:51;13.00;;;7.80;;
60919;SDS011;59039;52.108;19.942;2023-06-14T11:14:15;14.80;;;7.20;;
60919;SDS011;59039;52.108;19.942;2023-06-14T11:17:01;9.80;;;7.00;;
60919;SDS011;59039;52.108;19.942;2023-06-14T11:19:28;10.00;;;6.50;;
60919;SDS011;59039;52.108;19.942;2023-06-14T11:21:54;11.60;;;7.20;;
60919;SDS011;59039;52.108;19.942;2023-06-14T11:24:22;9.40;;;7.00;;
60919;SDS011;59039;52.108;19.942;2023-06-14T11:26:47;8.10;;;6.60;;
60919;SDS011;59039;52.108;19.942;2023-06-14T11:29:16;11.70;;;7.40;;
60919;SDS011;59039;52.108;19.942;2023-06-14T11:31:59;14.00;;;7.40;;
60919;SDS011;59039;52.108;19.942;2023-06-14T11:34:28;14.00;;;7.30;;
60919;SDS011;59039;52.108;19.942;2023-06-14T11:36:54;9.30;;;6.60;;
60919;SDS011;59039;52.108;19.942;2023-06-14T11:39:23;8.20;;;6.40;;
60919;SDS011;59039;52.108;19.942;2023-06-14T11:41:50;9.70;;;6.50;;
60919;SDS011;59039;52.108;19.942;2023-06-14T11:44:20;10.70;;;7.90;;
60919;SDS011;59039;52.108;19.942;2023-06-14T11:47:06;9.10;;;6.00;;
60919;SDS011;59039;52.108;19.942;2023-06-14T11:49:37;10.50;;;6.90;;
60919;SDS011;59039;52.108;19.942;2023-06-14T11:52:05;9.30;;;6.30;;
60919;SDS011;59039;52.108;19.942;2023-06-14T11:54:32;10.20;;;7.50;;
60919;SDS011;59039;52.108;19.942;2023-06-14T11:56:57;10.60;;;6.60;;
60919;SDS011;59039;52.108;19.942;2023-06-14T11:59:24;9.40;;;6.90;;
60919;SDS011;59039;52.108;19.942;2023-06-14T12:01:54;9.80;;;6.50;;
60919;SDS011;59039;52.108;19.942;2023-06-14T12:04:23;8.90;;;7.10;;
60919;SDS011;59039;52.108;19.942;2023-06-14T12:06:49;10.30;;;6.20;;
60919;SDS011;59039;52.108;19.942;2023-06-14T12:09:17;11.30;;;6.70;;
60919;SDS011;59039;52.108;19.942;2023-06-14T12:11:42;7.80;;;6.00;;
60919;SDS011;59039;52.108;19.942;2023-06-14T12:14:11;8.60;;;6.50;;
60919;SDS011;59039;52.108;19.942;2023-06-14T12:16:40;9.10;;;7.10;;
60919;SDS011;59039;52.108;19.942;2023-06-14T12:19:09;11.10;;;6.50;;
60919;SDS011;59039;52.108;19.942;2023-06-14T12:21:38;12.80;;;6.10;;
60919;SDS011;59039;52.108;19.942;2023-06-14T12:24:05;8.40;;;6.10;;
60919;SDS011;59039;52.108;19.942;2023-06-14T12:26:30;9.90;;;7.40;;
60919;SDS011;59039;52.108;19.942;2023-06-14T12:28:55;14.30;;;7.50;;
60919;SDS011;59039;52.108;19.942;2023-06-14T12:31:30;9.70;;;6.40;;
60919;SDS011;59039;52.108;19.942;2023-06-14T12:33:56;9.90;;;6.50;;
60919;SDS011;59039;52.108;19.942;2023-06-14T12:36:21;10.20;;;7.30;;
60919;SDS011;59039;52.108;19.942;2023-06-14T12:38:47;10.70;;;6.80;;
60919;SDS011;59039;52.108;19.942;2023-06-14T12:41:12;10.20;;;7.00;;
60919;SDS011;59039;52.108;19.942;2023-06-14T12:43:41;11.90;;;6.90;;
60919;SDS011;59039;52.108;19.942;2023-06-14T12:46:06;11.00;;;7.50;;
60919;SDS011;59039;52.108;19.942;2023-06-14T12:48:31;10.60;;;7.10;;
60919;SDS011;59039;52.108;19.942;2023-06-14T12:50:59;9.10;;;7.00;;
60919;SDS011;59039;52.108;19.942;2023-06-14T12:53:25;8.90;;;6.70;;
60919;SDS011;59039;52.108;19.942;2023-06-14T12:55:51;7.60;;;6.30;;
60919;SDS011;59039;52.108;19.942;2023-06-14T12:58:18;9.50;;;6.20;;
60919;SDS011;59039;52.108;19.942;2023-06-14T13:00:44;12.30;;;6.30;;
60919;SDS011;59039;52.108;19.942;2023-06-14T13:03:10;9.80;;;6.20;;
60919;SDS011;59039;52.108;19.942;2023-06-14T13:05:35;8.90;;;5.90;;
60919;SDS011;59039;52.108;19.942;2023-06-14T13:08:08;8.00;;;6.20;;
60919;SDS011;59039;52.108;19.942;2023-06-14T13:10:36;11.40;;;6.20;;
60919;SDS011;59039;52.108;19.942;2023-06-14T13:13:10;9.30;;;6.20;;
60919;SDS011;59039;52.108;19.942;2023-06-14T13:15:41;8.80;;;6.40;;
60919;SDS011;59039;52.108;19.942;2023-06-14T13:18:12;9.70;;;6.10;;
60919;SDS011;59039;52.108;19.942;2023-06-14T13:20:41;11.40;;;6.40;;
60919;SDS011;59039;52.108;19.942;2023-06-14T13:23:06;7.90;;;6.00;;
60919;SDS011;59039;52.108;19.942;2023-06-14T13:25:32;8.50;;;5.90;;
60919;SDS011;59039;52.108;19.942;2023-06-14T13:28:02;8.80;;;5.90;;
60919;SDS011;59039;52.108;19.942;2023-06-14T13:30:30;7.80;;;5.60;;
60919;SDS011;59039;52.108;19.942;2023-06-14T13:32:56;7.40;;;5.00;;
60919;SDS011;59039;52.108;19.942;2023-06-14T13:35:22;6.80;;;5.40;;
60919;SDS011;59039;52.108;19.942;2023-06-14T13:37:49;10.40;;;5.80;;
60919;SDS011;59039;52.108;19.942;2023-06-14T13:40:14;6.70;;;5.10;;
60919;SDS011;59039;52.108;19.942;2023-06-14T13:42:40;9.70;;;5.40;;
60919;SDS011;59039;52.108;19.942;2023-06-14T13:45:14;9.10;;;5.60;;
60919;SDS011;59039;52.108;19.942;2023-06-14T13:47:40;7.90;;;5.40;;
60919;SDS011;59039;52.108;19.942;2023-06-14T13:50:06;8.40;;;5.10;;
60919;SDS011;59039;52.108;19.942;2023-06-14T13:52:31;10.60;;;6.40;;
60919;SDS011;59039;52.108;19.942;2023-06-14T13:55:00;12.20;;;7.20;;
60919;SDS011;59039;52.108;19.942;2023-06-14T13:57:25;8.80;;;6.40;;
60919;SDS011;59039;52.108;19.942;2023-06-14T14:00:00;9.00;;;6.50;;
60919;SDS011;59039;52.108;19.942;2023-06-14T14:02:26;8.50;;;5.90;;
60919;SDS011;59039;52.108;19.942;2023-06-14T14:04:57;7.80;;;5.80;;
60919;SDS011;59039;52.108;19.942;2023-06-14T14:07:22;10.20;;;6.10;;
60919;SDS011;59039;52.108;19.942;2023-06-14T14:09:48;11.60;;;6.90;;
60919;SDS011;59039;52.108;19.942;2023-06-14T14:12:14;10.90;;;5.60;;
60919;SDS011;59039;52.108;19.942;2023-06-14T14:14:51;10.50;;;6.10;;
60919;SDS011;59039;52.108;19.942;2023-06-14T14:17:16;9.10;;;5.70;;
60919;SDS011;59039;52.108;19.942;2023-06-14T14:19:41;7.30;;;5.80;;
60919;SDS011;59039;52.108;19.942;2023-06-14T14:22:07;10.20;;;4.90;;
60919;SDS011;59039;52.108;19.942;2023-06-14T14:24:41;7.80;;;4.60;;
60919;SDS011;59039;52.108;19.942;2023-06-14T14:27:07;7.90;;;5.10;;
60919;SDS011;59039;52.108;19.942;2023-06-14T14:29:37;8.90;;;4.80;;
60919;SDS011;59039;52.108;19.942;2023-06-14T14:32:03;7.80;;;4.80;;
60919;SDS011;59039;52.108;19.942;2023-06-14T14:34:41;7.50;;;4.80;;
60919;SDS011;59039;52.108;19.942;2023-06-14T14:37:06;8.00;;;5.20;;
60919;SDS011;59039;52.108;19.942;2023-06-14T14:39:54;7.70;;;4.80;;
60919;SDS011;59039;52.108;19.942;2023-06-14T14:42:30;5.60;;;4.40;;
60919;SDS011;59039;52.108;19.942;2023-06-14T14:45:04;8.20;;;4.40;;
60919;SDS011;59039;52.108;19.942;2023-06-14T14:47:36;6.00;;;4.50;;
60919;SDS011;59039;52.108;19.942;2023-06-14T14:50:11;6.80;;;4.70;;
60919;SDS011;59039;52.108;19.942;2023-06-14T14:52:58;7.30;;;4.50;;
60919;SDS011;59039;52.108;19.942;2023-06-14T14:55:22;8.30;;;4.50;;
60919;SDS011;59039;52.108;19.942;2023-06-14T14:58:08;9.30;;;5.50;;
60919;SDS011;59039;52.108;19.942;2023-06-14T15:00:41;6.20;;;4.60;;
60919;SDS011;59039;52.108;19.942;2023-06-14T15:03:20;7.20;;;4.80;;
60919;SDS011;59039;52.108;19.942;2023-06-14T15:06:06;7.30;;;4.70;;
60919;SDS011;59039;52.108;19.942;2023-06-14T15:08:54;7.50;;;5.20;;
60919;SDS011;59039;52.108;19.942;2023-06-14T15:11:27;8.30;;;5.90;;
60919;SDS011;59039;52.108;19.942;2023-06-14T15:14:19;7.60;;;5.20;;
60919;SDS011;59039;52.108;19.942;2023-06-14T15:17:05;11.30;;;6.30;;
60919;SDS011;59039;52.108;19.942;2023-06-14T15:19:50;11.00;;;6.20;;
60919;SDS011;59039;52.108;19.942;2023-06-14T15:25:31;8.10;;;5.70;;
60919;SDS011;59039;52.108;19.942;2023-06-14T15:28:07;9.60;;;5.70;;
60919;SDS011;59039;52.108;19.942;2023-06-14T15:30:33;9.70;;;5.50;;
60919;SDS011;59039;52.108;19.942;2023-06-14T15:33:07;9.10;;;5.70;;
60919;SDS011;59039;52.108;19.942;2023-06-14T15:35:33;8.90;;;5.50;;
60919;SDS011;59039;52.108;19.942;2023-06-14T15:38:17;9.20;;;6.10;;
60919;SDS011;59039;52.108;19.942;2023-06-14T15:43:34;8.50;;;5.60;;
60919;SDS011;59039;52.108;19.942;2023-06-14T15:46:00;9.70;;;7.10;;
60919;SDS011;59039;52.108;19.942;2023-06-14T15:48:25;11.50;;;5.70;;
60919;SDS011;59039;52.108;19.942;2023-06-14T15:50:50;10.10;;;6.10;;
60919;SDS011;59039;52.108;19.942;2023-06-14T15:53:16;8.00;;;6.00;;
60919;SDS011;59039;52.108;19.942;2023-06-14T15:55:41;6.50;;;5.50;;
60919;SDS011;59039;52.108;19.942;2023-06-14T15:58:07;8.80;;;5.50;;
60919;SDS011;59039;52.108;19.942;2023-06-14T16:04:02;7.50;;;5.90;;
60919;SDS011;59039;52.108;19.942;2023-06-14T16:06:29;8.00;;;5.40;;
60919;SDS011;59039;52.108;19.942;2023-06-14T16:09:15;10.00;;;6.10;;
60919;SDS011;59039;52.108;19.942;2023-06-14T16:12:02;11.40;;;5.60;;
60919;SDS011;59039;52.108;19.942;2023-06-14T16:14:31;7.80;;;5.30;;
60919;SDS011;59039;52.108;19.942;2023-06-14T16:19:54;8.00;;;5.40;;
60919;SDS011;59039;52.108;19.942;2023-06-14T16:22:25;8.50;;;4.30;;
60919;SDS011;59039;52.108;19.942;2023-06-14T16:24:51;5.80;;;4.80;;
60919;SDS011;59039;52.108;19.942;2023-06-14T16:27:25;6.90;;;5.00;;
60919;SDS011;59039;52.108;19.942;2023-06-14T16:29:53;8.70;;;4.90;;
60919;SDS011;59039;52.108;19.942;2023-06-14T16:32:19;9.60;;;5.30;;
60919;SDS011;59039;52.108;19.942;2023-06-14T16:37:49;7.10;;;4.90;;
60919;SDS011;59039;52.108;19.942;2023-06-14T16:42:59;7.00;;;5.50;;
60919;SDS011;59039;52.108;19.942;2023-06-14T16:45:28;7.10;;;5.20;;
60919;SDS011;59039;52.108;19.942;2023-06-14T16:47:53;7.70;;;5.20;;
60919;SDS011;59039;52.108;19.942;2023-06-14T16:50:21;12.40;;;5.30;;
60919;SDS011;59039;52.108;19.942;2023-06-14T16:52:47;8.30;;;4.40;;
60919;SDS011;59039;52.108;19.942;2023-06-14T16:55:29;5.90;;;4.40;;
60919;SDS011;59039;52.108;19.942;2023-06-14T16:58:09;6.50;;;4.20;;
60919;SDS011;59039;52.108;19.942;2023-06-14T17:00:34;6.50;;;4.70;;
60919;SDS011;59039;52.108;19.942;2023-06-14T17:05:35;7.00;;;5.20;;
60919;SDS011;59039;52.108;19.942;2023-06-14T17:08:01;7.60;;;4.80;;
60919;SDS011;59039;52.108;19.942;2023-06-14T17:10:27;7.10;;;5.50;;